Time;durP1;ratioP1;P1;durP2;ratioP2;P2;SDS_P1;SDS_P2;PMS_P1;PMS_P2;Temp;Humidity;BMP_temperature;BMP_pressure;BME280_temperature;BME280_humidity;BME280_pressure;Samples;Min_cycle;Max_cycle;Signal;HPM_P1;HPM_P2
2023/10/26 00:00:40;;;;;;;3.95;2.08;;;;;;;1.30;47.69;99764.53;6151566;23;20020;-92
2023/10/26 00:03:14;;;;;;;2.83;2.08;;;;;;;1.12;47.90;99734.00;6155316;23;20463;-93
2023/10/26 00:05:40;;;;;;;4.20;2.53;;;;;;;1.23;47.31;99736.91;6153419;23;20076;-93
2023/10/26 00:08:07;;;;;;;5.35;2.78;;;;;;;1.37;46.84;99736.38;6177203;23;20017;-94
2023/10/26 00:10:33;;;;;;;7.10;2.47;;;;;;;1.30;47.29;99726.81;6130638;23;20012;-94
2023/10/26 00:12:59;;;;;;;9.70;2.75;;;;;;;1.27;46.92;99730.00;6154255;23;20458;-92
2023/10/26 00:15:26;;;;;;;4.28;2.33;;;;;;;1.29;47.20;99744.00;6178585;23;20094;-94
2023/10/26 00:17:52;;;;;;;6.05;2.75;;;;;;;1.24;47.58;99733.97;6155847;23;20070;-93
2023/10/26 00:20:18;;;;;;;8.43;2.70;;;;;;;1.55;48.27;99794.59;6154393;23;20024;-93
2023/10/26 00:22:44;;;;;;;10.00;2.88;;;;;;;1.50;47.99;99772.97;6179243;23;20051;-93
2023/10/26 00:25:10;;;;;;;5.28;2.75;;;;;;;1.66;47.71;99792.94;6178505;23;20016;-93
2023/10/26 00:27:40;;;;;;;5.30;2.70;;;;;;;1.23;48.29;99732.34;6177867;23;20021;-93
2023/10/26 00:30:12;;;;;;;8.95;2.72;;;;;;;1.47;48.34;99768.06;6178026;23;20426;-91
2023/10/26 00:32:38;;;;;;;6.47;2.53;;;;;;;1.22;48.14;99714.53;6151629;23;20044;-93
2023/10/26 00:35:04;;;;;;;4.93;2.25;;;;;;;1.75;48.08;99796.03;6177495;23;20074;-92
2023/10/26 00:37:33;;;;;;;8.40;2.85;;;;;;;1.03;47.60;99702.34;6152461;23;20072;-92
2023/10/26 00:40:04;;;;;;;13.55;2.40;;;;;;;1.39;48.45;99763.03;6176548;23;20021;-91
2023/10/26 00:42:31;;;;;;;5.78;2.10;;;;;;;1.21;47.99;99712.91;6152372;23;20036;-92
2023/10/26 00:44:57;;;;;;;8.88;2.55;;;;;;;1.21;47.44;99707.53;6151512;23;20072;-93
2023/10/26 00:47:25;;;;;;;6.03;2.60;;;;;;;1.20;47.58;99715.84;6150948;23;20021;-91
2023/10/26 00:49:52;;;;;;;8.48;2.92;;;;;;;1.23;47.13;99739.63;6152795;23;20043;-94
2023/10/26 00:52:19;;;;;;;5.53;2.83;;;;;;;1.32;47.66;99748.91;6153303;23;20023;-94
2023/10/26 00:54:45;;;;;;;7.70;3.40;;;;;;;1.13;47.84;99708.75;6177141;23;20108;-94
2023/10/26 00:57:15;;;;;;;8.85;3.28;;;;;;;1.33;47.92;99731.72;6152367;23;20020;-92
2023/10/26 00:59:45;;;;;;;6.18;3.00;;;;;;;1.36;47.72;99742.00;6175820;23;20095;-92
2023/10/26 01:02:21;;;;;;;9.23;3.75;;;;;;;1.40;48.15;99741.28;6153364;23;20016;-94
2023/10/26 01:05:03;;;;;;;8.80;3.20;;;;;;;1.42;48.18;99746.41;6182311;23;20024;-92
2023/10/26 01:07:32;;;;;;;12.20;3.80;;;;;;;1.53;48.14;99736.66;6154279;23;20549;-94
2023/10/26 01:10:00;;;;;;;7.65;2.97;;;;;;;1.53;47.60;99739.34;6154843;23;20020;-94
2023/10/26 01:12:26;;;;;;;4.80;2.13;;;;;;;1.15;47.65;99703.09;6178790;23;20035;-94
2023/10/26 01:14:53;;;;;;;4.10;2.47;;;;;;;1.16;47.21;99700.19;6153890;23;20013;-94
2023/10/26 01:17:20;;;;;;;3.67;2.28;;;;;;;1.14;47.20;99696.91;6153551;23;20013;-94
2023/10/26 01:19:50;;;;;;;7.60;2.37;;;;;;;1.02;47.72;99696.13;6153159;23;20035;-93
2023/10/26 01:22:16;;;;;;;6.15;1.98;;;;;;;1.04;47.93;99685.13;6153596;23;20307;-95
2023/10/26 01:24:44;;;;;;;5.78;2.20;;;;;;;1.14;47.37;99693.41;6178931;23;20058;-96
2023/10/26 01:27:14;;;;;;;8.40;1.95;;;;;;;1.51;47.67;99766.50;6156313;23;20447;-95
2023/10/26 01:29:50;;;;;;;6.57;1.83;;;;;;;1.20;46.53;99723.94;6153785;23;20100;-94
2023/10/26 01:32:16;;;;;;;3.72;2.13;;;;;;;0.96;46.99;99702.50;6153933;23;20027;-95
2023/10/26 01:34:42;;;;;;;5.95;2.58;;;;;;;0.98;47.38;99700.38;6178559;23;20013;-94
2023/10/26 01:37:09;;;;;;;13.88;2.60;;;;;;;0.97;47.10;99687.97;6154175;23;20079;-93
2023/10/26 01:39:40;;;;;;;7.45;2.05;;;;;;;1.24;47.49;99744.75;6131758;23;20071;-93
2023/10/26 01:42:12;;;;;;;3.83;2.30;;;;;;;1.59;46.92;99809.25;6178325;23;20450;-94
2023/10/26 01:44:39;;;;;;;6.53;2.78;;;;;;;1.10;47.68;99720.00;6176518;23;20024;-93
2023/10/26 01:47:06;;;;;;;2.63;1.90;;;;;;;0.90;47.75;99690.81;6152693;23;20024;-94
2023/10/26 01:49:32;;;;;;;3.67;1.70;;;;;;;1.43;47.25;99766.91;6150466;23;20048;-92
2023/10/26 01:51:58;;;;;;;11.90;2.22;;;;;;;1.14;47.35;99736.47;6176586;23;20023;-92
2023/10/26 01:54:24;;;;;;;11.88;2.40;;;;;;;1.25;47.23;99751.75;6153304;23;20028;-93
2023/10/26 01:56:58;;;;;;;5.35;2.22;;;;;;;1.12;47.33;99734.00;6154533;23;20016;-93
2023/10/26 01:59:28;;;;;;;4.78;2.20;;;;;;;0.83;47.73;99687.44;6155240;23;20020;-94
2023/10/26 02:01:55;;;;;;;2.90;2.00;;;;;;;1.38;47.68;99764.13;6179121;23;20023;-92
2023/10/26 02:04:24;;;;;;;7.47;2.10;;;;;;;0.95;47.59;99695.47;6180175;23;20020;-95
2023/10/26 02:06:59;;;;;;;11.05;2.47;;;;;;;1.15;47.75;99738.91;6160142;23;20124;-94
2023/10/26 02:09:25;;;;;;;3.38;2.13;;;;;;;0.75;47.36;99687.00;6131571;23;20115;-93
2023/10/26 02:11:54;;;;;;;10.38;2.08;;;;;;;0.93;47.83;99724.50;6154421;23;20083;-95
2023/10/26 02:14:21;;;;;;;3.35;2.00;;;;;;;0.66;47.95;99663.19;6130091;23;20025;-93
2023/10/26 02:16:47;;;;;;;1.77;1.55;;;;;;;0.87;47.93;99720.09;6154623;23;20023;-95
2023/10/26 02:19:16;;;;;;;3.05;1.77;;;;;;;0.68;48.20;99682.56;6155014;23;20020;-95
2023/10/26 02:21:42;;;;;;;3.30;1.95;;;;;;;0.59;47.96;99677.81;6131489;23;20027;-95
2023/10/26 02:24:08;;;;;;;3.22;1.70;;;;;;;0.50;48.22;99668.47;6181652;23;20020;-95
2023/10/26 02:26:35;;;;;;;3.50;1.80;;;;;;;0.55;47.77;99687.41;6156266;23;20016;-93
2023/10/26 02:29:21;;;;;;;2.70;1.70;;;;;;;0.54;47.87;99670.47;6184234;23;20023;-95
2023/10/26 02:31:47;;;;;;;11.40;2.38;;;;;;;0.64;47.69;99688.69;6154615;23;20068;-94
2023/10/26 02:34:15;;;;;;;2.85;1.98;;;;;;;0.65;47.21;99677.66;6154211;23;20020;-95
2023/10/26 02:36:42;;;;;;;;;;;;;;;1.41;47.58;99787.88;6180416;23;20116;-95
2023/10/26 02:39:09;;;;;;;8.15;2.80;;;;;;;1.03;47.54;99738.16;6151140;23;19926;-95
2023/10/26 02:41:37;;;;;;;8.32;2.88;;;;;;;0.57;47.04;99682.63;6152026;23;20032;-94
2023/10/26 02:44:04;;;;;;;5.85;2.88;;;;;;;0.61;47.78;99678.41;6151911;23;20029;-93
2023/10/26 02:46:30;;;;;;;6.20;2.95;;;;;;;0.80;47.87;99739.06;6151947;23;20021;-95
2023/10/26 02:49:18;;;;;;;4.05;3.15;;;;;;;0.61;47.99;99721.44;6152471;23;20017;-94
2023/10/26 02:51:49;;;;;;;6.25;3.50;;;;;;;1.18;48.10;99786.91;6153051;23;20047;-95
2023/10/26 02:54:27;;;;;;;9.82;4.90;;;;;;;0.53;48.03;99676.91;6176793;23;20021;-95
2023/10/26 02:56:54;;;;;;;9.02;5.80;;;;;;;0.77;47.56;99704.56;6144954;23;20013;-94
2023/10/26 02:59:21;;;;;;;9.85;4.95;;;;;;;0.52;47.61;99659.13;6151558;23;20013;-94
2023/10/26 03:01:52;;;;;;;7.35;4.85;;;;;;;0.43;48.06;99668.59;6125413;23;20024;-94
2023/10/26 03:04:19;;;;;;;12.63;5.38;;;;;;;0.44;48.60;99662.19;6150755;23;20108;-94
2023/10/26 03:06:45;;;;;;;8.98;6.05;;;;;;;0.77;48.64;99701.84;6151646;23;20027;-94
2023/10/26 03:09:13;;;;;;;10.75;6.00;;;;;;;0.76;49.42;99710.16;6176212;23;20036;-95
2023/10/26 03:11:39;;;;;;;8.55;5.70;;;;;;;0.62;48.73;99675.44;6154192;23;20031;-92
2023/10/26 03:14:07;;;;;;;7.80;5.43;;;;;;;0.56;48.46;99654.06;6152011;23;20025;-93
2023/10/26 03:16:34;;;;;;;14.10;5.45;;;;;;;0.79;48.70;99707.00;6179827;23;20044;-95
2023/10/26 03:19:08;;;;;;;8.50;5.28;;;;;;;0.80;48.63;99719.41;6153572;23;20025;-94
2023/10/26 03:21:34;;;;;;;9.32;5.70;;;;;;;0.96;48.20;99734.81;6131404;23;20044;-93
2023/10/26 03:24:01;;;;;;;9.93;5.60;;;;;;;0.40;48.56;99655.66;6154890;23;20025;-93
2023/10/26 03:26:29;;;;;;;10.40;4.63;;;;;;;0.83;48.18;99708.97;6156017;23;20048;-94
2023/10/26 03:28:56;;;;;;;10.18;5.18;;;;;;;0.65;48.46;99682.25;6179433;23;20021;-94
2023/10/26 03:31:37;;;;;;;;;;;;;;;1.08;47.97;99757.09;6180577;23;20020;-94
2023/10/26 03:34:09;;;;;;;18.08;5.43;;;;;;;0.91;47.39;99732.81;6160472;23;19948;-94
2023/10/26 03:36:54;;;;;;;10.95;4.80;;;;;;;0.74;47.24;99714.97;6160172;23;20041;-94
2023/10/26 03:39:23;;;;;;;7.07;5.05;;;;;;;0.41;48.09;99655.41;6132140;23;20009;-94
2023/10/26 03:41:52;;;;;;;9.13;5.22;;;;;;;0.42;48.04;99646.28;6182444;23;20028;-94
2023/10/26 03:44:20;;;;;;;11.70;5.07;;;;;;;0.37;48.05;99650.75;6183259;23;20073;-92
2023/10/26 03:46:47;;;;;;;13.15;6.13;;;;;;;0.28;48.17;99628.78;6181540;23;20045;-93
2023/10/26 03:49:24;;;;;;;13.73;7.40;;;;;;;0.52;47.91;99645.66;6207573;23;20043;-93
2023/10/26 03:51:52;;;;;;;19.70;5.85;;;;;;;1.02;47.42;99714.16;6184071;23;20514;-93
2023/10/26 03:54:42;;;;;;;9.30;5.97;;;;;;;0.30;47.25;99655.41;6182416;23;20005;-93
2023/10/26 03:57:33;;;;;;;7.68;5.35;;;;;;;0.34;47.71;99653.91;6184442;23;20021;-92
2023/10/26 04:07:33;;;;;;;8.77;5.57;;;;;;;0.89;48.02;99726.03;6208417;23;20005;-91
2023/10/26 04:10:31;;;;;;;12.52;4.85;;;;;;;1.19;47.76;99768.88;6212440;23;20029;-92
2023/10/26 04:13:30;;;;;;;12.07;5.35;;;;;;;0.81;48.40;99699.50;6158582;23;20051;-93
2023/10/26 04:22:14;;;;;;;12.45;5.82;;;;;;;0.55;47.78;99645.19;6237098;23;20047;-90
2023/10/26 04:25:07;;;;;;;15.45;5.85;;;;;;;1.17;47.95;99747.59;6168473;23;20024;-93
2023/10/26 04:28:16;;;;;;;14.35;6.20;;;;;;;0.42;48.05;99643.59;6217559;23;20100;-94
2023/10/26 04:31:29;;;;;;;10.20;5.95;;;;;;;0.47;48.23;99649.06;6196594;23;20040;-94
2023/10/26 04:34:04;;;;;;;13.57;5.18;;;;;;;0.40;48.50;99651.09;6219672;23;20043;-93
2023/10/26 04:48:36;;;;;;;11.75;5.78;;;;;;;0.91;47.69;99707.78;6235557;23;20041;-92
2023/10/26 04:51:36;;;;;;;8.13;6.13;;;;;;;1.12;48.13;99752.84;6214421;23;20012;-93
2023/10/26 04:58:43;;;;;;;13.30;6.75;;;;;;;0.88;48.52;99716.31;6122975;23;20023;-92
2023/10/26 05:02:15;;;;;;;9.02;6.15;;;;;;;1.14;48.87;99747.25;6103041;23;20026;-92
2023/10/26 05:13:40;;;;;;;15.95;5.35;;;;;;;0.60;48.55;99653.38;6241352;23;20076;-93
2023/10/26 05:16:17;;;;;;;17.38;6.03;;;;;;;1.06;48.46;99713.47;6207140;23;20087;-93
2023/10/26 05:18:55;;;;;;;10.05;4.93;;;;;;;0.84;48.21;99677.50;6234208;23;20021;-90
2023/10/26 05:21:26;;;;;;;17.50;5.45;;;;;;;0.73;48.27;99654.13;6163465;23;20048;-93
2023/10/26 05:24:36;;;;;;;10.15;4.50;;;;;;;1.24;49.16;99725.09;6141887;23;20004;-93
2023/10/26 05:27:48;;;;;;;13.80;4.70;;;;;;;0.75;48.66;99660.09;6240570;23;20016;-92
2023/10/26 05:33:39;;;;;;;9.25;4.25;;;;;;;0.88;48.53;99701.00;6181499;23;20014;-93
2023/10/26 05:40:04;;;;;;;6.35;4.10;;;;;;;1.00;48.51;99692.88;6204938;23;20021;-92
2023/10/26 05:46:23;;;;;;;14.70;3.88;;;;;;;0.46;48.31;99611.66;6240461;23;20033;-93
2023/10/26 05:49:35;;;;;;;6.93;4.07;;;;;;;0.52;48.23;99628.72;6189924;23;20099;-94
2023/10/26 05:52:07;;;;;;;15.00;4.28;;;;;;;0.81;47.63;99668.03;6189768;23;19997;-93
2023/10/26 05:54:44;;;;;;;9.48;3.13;;;;;;;0.67;48.04;99650.53;6168760;23;20047;-92
2023/10/26 05:57:11;;;;;;;7.20;3.60;;;;;;;1.15;52.09;99721.94;6163013;23;20027;-90
2023/10/26 05:59:39;;;;;;;8.30;3.50;;;;;;;0.86;48.01;99675.38;6188141;23;20000;-92
2023/10/26 06:02:38;;;;;;;12.73;3.97;;;;;;;1.20;47.69;99726.63;6165367;23;20051;-92
2023/10/26 06:05:15;;;;;;;21.48;3.70;;;;;;;0.54;48.02;99608.59;6192391;23;20031;-93
2023/10/26 06:08:09;;;;;;;24.73;4.13;;;;;;;0.95;48.15;99679.31;6216157;23;20020;-92
2023/10/26 06:14:10;;;;;;;6.85;3.65;;;;;;;1.36;47.66;99717.78;6232602;23;20024;-93
2023/10/26 06:17:10;;;;;;;14.93;3.83;;;;;;;1.08;47.71;99684.41;6111146;23;20001;-93
2023/10/26 06:20:11;;;;;;;7.95;4.15;;;;;;;0.77;47.57;99623.00;6138040;23;20009;-95
2023/10/26 06:23:07;;;;;;;124.85;9.38;;;;;;;0.76;47.08;99645.56;6177045;22;20059;-91
2023/10/26 06:28:39;;;;;;;15.05;4.13;;;;;;;1.15;47.79;99682.38;6152815;23;20013;-90
2023/10/26 06:31:40;;;;;;;11.20;3.88;;;;;;;0.64;47.94;99606.09;6131052;23;20001;-94
2023/10/26 06:40:18;;;;;;;10.45;3.28;;;;;;;1.27;46.97;99665.34;6229685;23;20016;-92
2023/10/26 06:49:07;;;;;;;12.18;4.43;;;;;;;0.97;47.43;99593.78;6235471;22;20019;-92
2023/10/26 06:57:55;;;;;;;12.48;4.50;;;;;;;1.21;46.38;99613.28;6212025;23;20029;-93
2023/10/26 07:00:45;;;;;;;11.55;3.33;;;;;;;1.62;46.39;99692.91;6195412;23;20012;-91
2023/10/26 07:12:26;;;;;;;20.13;4.60;;;;;;;1.26;46.13;99607.16;6231658;23;20004;-93
2023/10/26 07:15:02;;;;;;;9.68;3.72;;;;;;;1.88;46.10;99714.84;6217976;23;20046;-92
2023/10/26 07:23:13;;;;;;;5.93;3.72;;;;;;;1.75;46.50;99693.59;6240846;23;20028;-91
2023/10/26 07:26:00;;;;;;;7.50;4.07;;;;;;;1.20;46.33;99605.44;6166987;23;20004;-91
2023/10/26 07:28:31;;;;;;;6.20;4.15;;;;;;;1.71;46.01;99655.56;6154906;23;20025;-93
2023/10/26 07:30:58;;;;;;;7.07;4.55;;;;;;;1.48;46.40;99602.66;6107574;23;20013;-93
2023/10/26 07:33:54;;;;;;;6.50;3.22;;;;;;;1.57;46.05;99598.50;6108226;23;20045;-94
2023/10/26 07:40:56;;;;;;;10.88;4.18;;;;;;;1.69;46.51;99619.13;6183148;23;19997;-95
2023/10/26 08:19:29;;;;;;;9.23;3.97;;;;;;;2.24;45.63;99683.00;6241301;22;20029;-93
2023/10/26 08:21:59;;;;;;;14.32;4.53;;;;;;;2.13;45.32;99641.59;6213153;23;20040;-91
2023/10/26 08:24:27;;;;;;;9.75;5.25;;;;;;;1.95;45.98;99607.63;6162391;23;20025;-91
2023/10/26 08:27:13;;;;;;;30.33;5.47;;;;;;;1.67;46.17;99564.69;6196843;23;19996;-91
2023/10/26 16:54:29;;;;;;;6.50;3.63;;;;;;;2.48;47.67;99367.88;6241694;23;20040;-90
2023/10/26 16:57:42;;;;;;;9.75;3.63;;;;;;;2.45;47.61;99371.09;6215291;23;20111;-93
2023/10/26 17:00:40;;;;;;;10.30;4.47;;;;;;;2.42;47.82;99366.22;6213815;23;20051;-92
2023/10/26 17:03:47;;;;;;;8.68;3.08;;;;;;;2.03;47.50;99283.69;6199195;23;20029;-91
2023/10/26 17:06:47;;;;;;;11.52;3.38;;;;;;;2.37;47.66;99356.22;6219832;23;20591;-91
2023/10/26 17:09:14;;;;;;;20.60;2.95;;;;;;;2.04;48.12;99316.84;6211349;23;20020;-93
2023/10/26 20:32:56;;;;;;;8.38;3.28;;;;;;;0.43;68.98;99244.53;6236871;23;20038;-91
2023/10/26 20:36:10;;;;;;;6.68;3.28;;;;;;;-0.25;69.16;99130.97;6240404;23;20032;-90
2023/10/26 20:38:43;;;;;;;8.73;3.55;;;;;;;0.47;69.00;99231.41;6187118;23;20017;-92
